Time;durP1;ratioP1;P1;durP2;ratioP2;P2;SDS_P1;SDS_P2;PMS_P1;PMS_P2;Temp;Humidity;BMP_temperature;BMP_pressure;BME280_temperature;BME280_humidity;BME280_pressure;Samples;Min_cycle;Max_cycle;Signal;HPM_P1;HPM_P2
2021/12/31 00:00:47;;;;;;;0.00;0.00;;;;;;;14.73;82.56;99686.94;7362881;19;20081;-59
2021/12/31 00:03:17;;;;;;;0.00;0.00;;;;;;;14.77;82.51;99687.63;7364900;19;20011;-60
2021/12/31 00:05:44;;;;;;;0.00;0.00;;;;;;;14.78;82.42;99695.41;7358449;19;20010;-60
2021/12/31 00:08:09;;;;;;;0.10;0.10;;;;;;;14.77;82.63;99698.13;7364897;19;20023;-60
2021/12/31 00:10:35;;;;;;;0.10;0.10;;;;;;;14.78;82.47;99698.03;7356416;19;20014;-60
2021/12/31 00:13:00;;;;;;;0.10;0.10;;;;;;;14.81;82.64;99704.91;7361233;19;20018;-60
2021/12/31 00:15:26;;;;;;;0.00;0.00;;;;;;;14.82;82.25;99696.09;7360487;19;20003;-59
2021/12/31 00:17:51;;;;;;;0.10;0.10;;;;;;;14.84;82.40;99693.38;7363188;19;20013;-60
2021/12/31 00:20:21;;;;;;;0.03;0.03;;;;;;;14.86;82.15;99691.53;7361282;19;20036;-59
2021/12/31 00:25:15;;;;;;;0.10;0.10;;;;;;;14.88;81.98;99687.00;7362921;19;20011;-60
2021/12/31 00:27:41;;;;;;;0.00;0.00;;;;;;;14.88;82.05;99689.66;7363307;19;20020;-60
2021/12/31 00:30:07;;;;;;;0.08;0.08;;;;;;;14.92;81.98;99691.19;7359982;19;20081;-59
2021/12/31 00:32:33;;;;;;;0.10;0.10;;;;;;;14.91;82.15;99697.38;7362366;19;20022;-59
2021/12/31 00:34:59;;;;;;;0.00;0.00;;;;;;;14.93;82.11;99698.97;7355782;19;20674;-59
2021/12/31 00:37:26;;;;;;;0.00;0.00;;;;;;;14.96;82.14;99697.97;7355706;19;20040;-60
2021/12/31 00:39:52;;;;;;;0.10;0.10;;;;;;;14.95;81.50;99681.34;7362630;19;20026;-59
2021/12/31 00:42:17;;;;;;;0.10;0.10;;;;;;;14.96;81.90;99692.69;7350967;19;20048;-59
2021/12/31 00:44:43;;;;;;;0.08;0.08;;;;;;;14.96;81.76;99667.25;7357878;19;20036;-60
2021/12/31 00:47:08;;;;;;;0.00;0.00;;;;;;;14.96;81.40;99669.03;7357558;19;20017;-60
2021/12/31 00:49:34;;;;;;;0.03;0.03;;;;;;;14.97;81.65;99660.22;7357277;19;20014;-61
2021/12/31 00:51:59;;;;;;;0.10;0.10;;;;;;;14.94;81.35;99666.47;7357650;19;20010;-59
2021/12/31 00:54:24;;;;;;;0.10;0.10;;;;;;;14.97;81.47;99681.25;7357787;19;20707;-59
2021/12/31 00:56:50;;;;;;;0.00;0.00;;;;;;;14.98;81.36;99675.03;7356837;19;20006;-60
2021/12/31 00:59:15;;;;;;;0.00;0.00;;;;;;;14.85;80.86;99645.13;7354470;19;20006;-59
2021/12/31 01:01:41;;;;;;;0.10;0.10;;;;;;;14.98;81.52;99660.13;7354597;19;20035;-59
2021/12/31 01:04:06;;;;;;;0.10;0.10;;;;;;;14.87;81.05;99630.13;7349122;19;20009;-60
2021/12/31 01:06:32;;;;;;;0.10;0.10;;;;;;;14.94;80.84;99648.06;7356072;19;20055;-60
2021/12/31 01:08:57;;;;;;;0.10;0.10;;;;;;;14.93;81.02;99648.16;7353924;19;20016;-60
2021/12/31 01:11:22;;;;;;;0.10;0.10;;;;;;;14.92;80.79;99643.84;7353662;19;20018;-59
2021/12/31 01:16:14;;;;;;;0.10;0.10;;;;;;;14.85;80.69;99648.63;7354101;19;20021;-60
2021/12/31 01:21:20;;;;;;;0.00;0.00;;;;;;;14.85;80.27;99648.63;7353868;19;20030;-59
2021/12/31 01:23:49;;;;;;;0.08;0.08;;;;;;;14.80;80.58;99653.28;7358013;19;20014;-59
2021/12/31 01:26:14;;;;;;;0.00;0.00;;;;;;;14.79;80.68;99641.91;7360276;19;20074;-59
2021/12/31 01:28:40;;;;;;;0.10;0.10;;;;;;;14.68;80.20;99628.53;7362794;19;20018;-60
2021/12/31 01:31:05;;;;;;;0.10;0.10;;;;;;;14.78;80.33;99663.03;7354334;19;20107;-59
2021/12/31 01:33:31;;;;;;;0.10;0.10;;;;;;;14.76;80.64;99655.25;7363216;19;20006;-59
2021/12/31 01:35:57;;;;;;;0.10;0.10;;;;;;;14.74;80.17;99656.25;7359747;19;20758;-59
2021/12/31 01:38:22;;;;;;;0.00;0.00;;;;;;;14.67;80.45;99650.50;7363830;19;20021;-59
2021/12/31 01:40:49;;;;;;;0.00;0.00;;;;;;;14.74;80.95;99672.00;7364873;19;20036;-59
2021/12/31 01:43:16;;;;;;;0.00;0.00;;;;;;;14.69;80.22;99663.53;7359372;19;20010;-59
2021/12/31 01:45:54;;;;;;;0.03;0.03;;;;;;;14.60;80.49;99664.94;7359094;19;20059;-60
2021/12/31 01:48:28;;;;;;;0.00;0.00;;;;;;;14.56;80.17;99657.31;7356631;19;20507;-59
2021/12/31 01:50:54;;;;;;;0.00;0.00;;;;;;;14.68;80.40;99686.34;7360863;19;20464;-59
2021/12/31 01:53:26;;;;;;;0.05;0.05;;;;;;;14.70;79.69;99681.88;7362709;19;20027;-59
2021/12/31 01:55:56;;;;;;;0.10;0.10;;;;;;;14.68;80.00;99686.34;7366905;19;20366;-60
2021/12/31 01:58:23;;;;;;;0.10;0.10;;;;;;;14.67;80.17;99678.56;7368408;19;20007;-59
2021/12/31 02:00:49;;;;;;;0.10;0.10;;;;;;;14.65;79.81;99656.75;7361007;19;20011;-59
2021/12/31 02:03:18;;;;;;;0.10;0.10;;;;;;;14.63;80.12;99654.22;7361046;19;20078;-60
2021/12/31 02:05:43;;;;;;;0.10;0.10;;;;;;;14.60;80.06;99659.69;7370574;19;20035;-59
2021/12/31 02:08:09;;;;;;;0.00;0.00;;;;;;;14.58;80.13;99669.41;7366274;19;20563;-59
2021/12/31 02:10:34;;;;;;;0.00;0.00;;;;;;;14.56;79.57;99676.53;7361532;19;20039;-59
2021/12/31 02:13:00;;;;;;;0.10;0.10;;;;;;;14.55;80.02;99682.72;7367129;19;20010;-59
2021/12/31 02:15:26;;;;;;;0.10;0.10;;;;;;;14.52;79.85;99673.22;7352257;19;20015;-59
2021/12/31 02:17:53;;;;;;;0.00;0.00;;;;;;;14.48;79.59;99661.19;7353181;19;20042;-59
2021/12/31 02:20:20;;;;;;;0.10;0.10;;;;;;;14.53;80.19;99663.56;7350205;19;20039;-58
2021/12/31 02:22:55;;;;;;;0.10;0.10;;;;;;;14.53;80.10;99684.56;7352271;19;20044;-59
2021/12/31 02:25:24;;;;;;;0.00;0.00;;;;;;;14.50;79.63;99666.38;7351294;19;20019;-59
2021/12/31 02:27:50;;;;;;;0.10;0.10;;;;;;;14.53;79.86;99669.66;7354285;19;20023;-59
2021/12/31 02:30:15;;;;;;;0.10;0.10;;;;;;;14.49;79.96;99652.38;7338497;19;20014;-59
2021/12/31 02:32:41;;;;;;;0.10;0.10;;;;;;;14.54;80.00;99675.75;7356702;19;20014;-59
2021/12/31 02:35:09;;;;;;;0.10;0.10;;;;;;;14.09;79.88;99592.44;7358657;19;20022;-59
2021/12/31 02:37:35;;;;;;;0.00;0.00;;;;;;;14.54;79.30;99675.75;7360464;19;20014;-59
2021/12/31 02:40:05;;;;;;;0.00;0.00;;;;;;;14.54;79.35;99673.13;7357121;19;20024;-59
2021/12/31 02:42:31;;;;;;;0.10;0.10;;;;;;;14.52;79.62;99672.38;7353918;19;20042;-59
2021/12/31 02:44:57;;;;;;;0.10;0.10;;;;;;;14.37;79.20;99663.53;7357355;19;20462;-59
2021/12/31 02:47:23;;;;;;;0.10;0.10;;;;;;;14.50;79.59;99711.03;7353895;19;20017;-60
2021/12/31 02:49:49;;;;;;;0.00;0.00;;;;;;;14.49;79.41;99706.69;7347984;19;20014;-59
2021/12/31 02:52:16;;;;;;;0.00;0.00;;;;;;;14.49;79.36;99714.56;7358859;19;20363;-59
2021/12/31 02:54:46;;;;;;;0.10;0.10;;;;;;;14.51;80.02;99725.84;7361517;19;20022;-59
2021/12/31 02:57:13;;;;;;;0.10;0.10;;;;;;;14.50;80.05;99713.66;7361929;19;20010;-58
2021/12/31 02:59:39;;;;;;;0.08;0.08;;;;;;;14.53;80.20;99731.84;7341252;19;20018;-59
2021/12/31 03:02:06;;;;;;;0.10;0.10;;;;;;;14.32;80.08;99686.56;7349365;19;20019;-59
2021/12/31 03:04:35;;;;;;;0.10;0.10;;;;;;;14.59;79.62;99721.00;7360652;19;20010;-59
2021/12/31 03:07:03;;;;;;;0.00;0.00;;;;;;;14.63;79.65;99700.69;7351637;19;20014;-59
2021/12/31 03:09:28;;;;;;;0.03;0.03;;;;;;;14.58;79.81;99687.78;7359781;19;20023;-59
2021/12/31 03:11:56;;;;;;;0.10;0.10;;;;;;;14.64;79.38;99687.44;7354035;19;20014;-58
2021/12/31 03:14:22;;;;;;;;;;;;;;;14.67;79.98;99697.81;7350534;19;20488;-59
2021/12/31 03:16:49;;;;;;;0.05;0.05;;;;;;;14.63;79.44;99680.50;7353579;19;20247;-59
2021/12/31 03:19:16;;;;;;;0.00;0.00;;;;;;;14.61;79.10;99676.28;7347920;19;20006;-59
2021/12/31 03:21:42;;;;;;;0.10;0.10;;;;;;;14.58;79.45;99661.53;7349729;19;20018;-59
2021/12/31 03:24:07;;;;;;;0.10;0.10;;;;;;;14.51;79.54;99665.44;7335435;19;20014;-58
2021/12/31 03:26:34;;;;;;;0.10;0.10;;;;;;;14.54;79.53;99670.50;7361168;19;20049;-59
2021/12/31 03:29:00;;;;;;;0.08;0.08;;;;;;;14.51;79.60;99670.69;7352706;19;20010;-59
2021/12/31 03:31:27;;;;;;;0.10;0.10;;;;;;;14.51;79.42;99662.81;7350467;19;20109;-58
2021/12/31 03:33:53;;;;;;;0.10;0.10;;;;;;;14.46;79.64;99667.44;7352195;19;20022;-58
2021/12/31 03:36:19;;;;;;;0.00;0.00;;;;;;;14.37;79.84;99647.75;7345775;19;20006;-58
2021/12/31 03:38:44;;;;;;;0.00;0.00;;;;;;;14.45;79.69;99660.50;7352580;19;20011;-58
2021/12/31 03:41:10;;;;;;;0.00;0.00;;;;;;;14.42;79.71;99655.41;7347256;19;20050;-59
2021/12/31 03:43:35;;;;;;;0.00;0.00;;;;;;;14.41;79.47;99658.97;7353365;19;20035;-59
2021/12/31 03:46:01;;;;;;;0.10;0.10;;;;;;;14.39;79.25;99671.31;7342244;19;20021;-59
2021/12/31 03:48:26;;;;;;;0.00;0.00;;;;;;;14.39;79.49;99660.81;7347581;19;20033;-58
2021/12/31 03:50:52;;;;;;;0.10;0.10;;;;;;;14.38;79.56;99656.50;7349913;19;20086;-59
2021/12/31 03:53:17;;;;;;;0.10;0.10;;;;;;;14.36;79.75;99655.75;7351411;19;20381;-59
2021/12/31 03:55:43;;;;;;;0.10;0.10;;;;;;;14.36;79.88;99653.13;7351775;19;20558;-58
2021/12/31 03:58:09;;;;;;;0.10;0.10;;;;;;;14.35;79.70;99648.78;7354084;19;20081;-59
2021/12/31 04:00:34;;;;;;;0.10;0.10;;;;;;;14.16;79.40;99628.78;7340648;19;20014;-59
2021/12/31 04:03:07;;;;;;;0.10;0.10;;;;;;;14.38;79.98;99653.88;7350102;19;20011;-58
2021/12/31 04:05:33;;;;;;;0.00;0.00;;;;;;;14.35;79.31;99643.53;7334016;19;20031;-59
2021/12/31 04:07:59;;;;;;;0.10;0.10;;;;;;;14.32;79.31;99644.53;7351677;19;20006;-59
2021/12/31 04:10:25;;;;;;;0.10;0.10;;;;;;;14.32;79.73;99643.69;7346818;19;20388;-59
2021/12/31 04:12:52;;;;;;;0.10;0.10;;;;;;;14.31;79.13;99655.16;7346657;19;20026;-58
2021/12/31 04:15:17;;;;;;;0.10;0.10;;;;;;;14.36;79.23;99650.50;7353064;19;20011;-59
2021/12/31 04:17:43;;;;;;;0.03;0.03;;;;;;;14.38;79.40;99664.38;7352082;19;20011;-59
2021/12/31 04:20:19;;;;;;;0.10;0.10;;;;;;;14.39;79.15;99655.56;7347649;19;20019;-58
2021/12/31 04:22:55;;;;;;;0.10;0.10;;;;;;;14.31;79.00;99655.16;7354431;19;20021;-59
2021/12/31 04:25:22;;;;;;;0.10;0.10;;;;;;;14.39;79.31;99666.06;7350464;19;20010;-58
2021/12/31 04:27:48;;;;;;;0.10;0.10;;;;;;;14.38;78.86;99669.63;7351456;19;20011;-57
2021/12/31 04:30:14;;;;;;;0.10;0.10;;;;;;;14.39;79.21;99689.69;7357432;19;20498;-59
2021/12/31 04:32:40;;;;;;;0.10;0.10;;;;;;;14.41;79.14;99658.97;7345764;19;20010;-59
2021/12/31 04:35:07;;;;;;;0.10;0.10;;;;;;;14.39;78.98;99647.66;7345597;19;20014;-59
2021/12/31 04:37:33;;;;;;;0.00;0.00;;;;;;;14.42;79.25;99652.78;7355615;19;20021;-58
2021/12/31 04:39:58;;;;;;;0.10;0.10;;;;;;;14.42;78.78;99651.00;7357185;19;20618;-59
2021/12/31 04:42:23;;;;;;;0.00;0.00;;;;;;;14.41;78.51;99653.72;7354087;19;20527;-59
2021/12/31 04:44:49;;;;;;;0.00;0.00;;;;;;;14.46;78.59;99662.19;7351312;19;20047;-58
2021/12/31 04:47:14;;;;;;;0.00;0.00;;;;;;;14.46;78.65;99662.19;7356461;19;20010;-59
2021/12/31 04:49:40;;;;;;;0.10;0.10;;;;;;;14.47;78.35;99667.38;7348872;19;20018;-59
2021/12/31 04:52:06;;;;;;;0.10;0.10;;;;;;;14.48;77.99;99666.44;7352699;19;20021;-58
2021/12/31 04:54:31;;;;;;;0.00;0.00;;;;;;;14.50;78.48;99690.00;7356064;19;20061;-58
2021/12/31 04:56:58;;;;;;;0.10;0.10;;;;;;;14.50;77.85;99666.38;7350135;19;20019;-58
2021/12/31 04:59:24;;;;;;;0.03;0.03;;;;;;;14.52;78.12;99670.59;7355664;19;20006;-59
2021/12/31 05:01:49;;;;;;;0.05;0.05;;;;;;;14.53;78.11;99671.44;7354268;19;20842;-59
2021/12/31 05:04:15;;;;;;;0.10;0.10;;;;;;;14.52;77.87;99672.38;7349966;19;20081;-59
2021/12/31 05:06:41;;;;;;;0.10;0.10;;;;;;;14.55;78.42;99672.22;7353578;19;20563;-58
2021/12/31 05:09:06;;;;;;;0.10;0.10;;;;;;;14.54;77.74;99670.50;7354201;19;20091;-58
2021/12/31 05:11:32;;;;;;;0.10;0.10;;;;;;;14.58;78.00;99682.53;7348328;19;22603;-58
2021/12/31 05:13:58;;;;;;;0.00;0.00;;;;;;;14.54;77.72;99691.50;7336709;19;20007;-59
2021/12/31 05:16:23;;;;;;;0.10;0.10;;;;;;;14.56;77.72;99702.81;7349989;19;20006;-58
2021/12/31 05:18:49;;;;;;;0.00;0.00;;;;;;;14.51;77.91;99707.47;7329939;19;20007;-58
2021/12/31 05:21:14;;;;;;;0.10;0.10;;;;;;;14.57;78.29;99725.50;7339274;19;20086;-59
2021/12/31 05:23:40;;;;;;;0.10;0.10;;;;;;;14.46;78.01;99688.44;7320807;19;20891;-58
2021/12/31 05:26:05;;;;;;;0.08;0.08;;;;;;;14.61;78.08;99715.69;7344746;19;20081;-59
2021/12/31 05:28:32;;;;;;;0.10;0.10;;;;;;;14.64;78.44;99720.75;7345775;19;20038;-58
2021/12/31 05:30:58;;;;;;;0.10;0.10;;;;;;;14.67;78.48;99717.97;7340621;19;20010;-59
2021/12/31 05:33:24;;;;;;;0.10;0.10;;;;;;;14.69;78.76;99737.97;7352028;19;20014;-58
2021/12/31 05:35:50;;;;;;;0.00;0.00;;;;;;;14.70;78.51;99729.19;7348239;19;20027;-58
2021/12/31 05:38:16;;;;;;;0.03;0.03;;;;;;;14.72;78.00;99734.34;7353572;19;21361;-58
2021/12/31 05:40:41;;;;;;;0.00;0.00;;;;;;;14.74;78.13;99749.06;7344200;19;20014;-58
2021/12/31 05:43:07;;;;;;;0.10;0.10;;;;;;;14.73;78.61;99747.38;7348683;19;20044;-58
2021/12/31 05:45:32;;;;;;;0.10;0.10;;;;;;;14.73;77.99;99742.13;7349173;19;20094;-59
2021/12/31 05:47:58;;;;;;;0.00;0.00;;;;;;;14.77;78.36;99759.44;7348309;19;20034;-58
2021/12/31 05:50:29;;;;;;;0.10;0.10;;;;;;;14.74;78.90;99754.31;7348351;19;20036;-59
2021/12/31 05:52:56;;;;;;;0.10;0.10;;;;;;;14.85;78.16;99780.06;7351557;19;20044;-58
2021/12/31 05:55:22;;;;;;;0.00;0.00;;;;;;;14.87;78.38;99769.44;7353718;19;20007;-58
2021/12/31 05:57:47;;;;;;;0.10;0.10;;;;;;;14.87;77.97;99753.66;7349184;19;20003;-58
2021/12/31 06:00:13;;;;;;;0.10;0.10;;;;;;;14.52;78.14;99706.53;7344815;19;20011;-59
2021/12/31 06:02:39;;;;;;;0.00;0.00;;;;;;;14.80;77.91;99761.06;7351491;19;20747;-59
2021/12/31 06:05:05;;;;;;;0.08;0.08;;;;;;;14.82;77.88;99758.34;7349762;19;20123;-58
2021/12/31 06:07:30;;;;;;;0.10;0.10;;;;;;;14.87;77.55;99769.44;7353558;19;20938;-59
2021/12/31 06:09:56;;;;;;;0.10;0.10;;;;;;;14.68;78.12;99717.88;7355090;19;20006;-58
2021/12/31 06:12:23;;;;;;;0.10;0.10;;;;;;;14.84;77.96;99738.06;7355218;19;20007;-59
2021/12/31 06:14:49;;;;;;;0.00;0.00;;;;;;;14.85;78.08;99752.88;7362817;19;20017;-59
2021/12/31 06:17:21;;;;;;;0.10;0.10;;;;;;;14.84;78.35;99769.59;7355026;19;20017;-58
2021/12/31 06:19:47;;;;;;;0.00;0.00;;;;;;;14.84;78.02;99751.19;7362806;19;20007;-59
2021/12/31 06:22:12;;;;;;;0.03;0.03;;;;;;;14.83;77.56;99749.50;7360948;19;20014;-58
2021/12/31 06:24:38;;;;;;;0.10;0.10;;;;;;;14.81;77.63;99761.91;7361127;19;20029;-58
2021/12/31 06:27:03;;;;;;;0.00;0.00;;;;;;;14.82;77.85;99768.84;7357859;19;20014;-59
2021/12/31 06:29:29;;;;;;;0.10;0.10;;;;;;;14.82;77.54;99758.34;7361850;19;20395;-59
2021/12/31 06:31:54;;;;;;;0.10;0.10;;;;;;;14.81;77.38;99767.16;7363898;19;20103;-57
2021/12/31 06:34:20;;;;;;;0.10;0.10;;;;;;;14.68;77.36;99757.31;7354431;19;20019;-58
2021/12/31 06:36:45;;;;;;;0.10;0.10;;;;;;;14.70;77.27;99770.34;7362361;19;20634;-58
2021/12/31 06:39:11;;;;;;;0.10;0.10;;;;;;;14.69;76.93;99772.13;7350179;19;20010;-59
2021/12/31 06:41:36;;;;;;;0.10;0.10;;;;;;;14.71;77.52;99786.06;7361197;19;20015;-59
2021/12/31 06:44:02;;;;;;;0.00;0.00;;;;;;;14.70;77.28;99787.00;7357690;19;20026;-58
2021/12/31 06:46:27;;;;;;;0.10;0.10;;;;;;;14.60;77.56;99754.25;7367365;19;20503;-58
2021/12/31 06:48:53;;;;;;;0.10;0.10;;;;;;;14.70;77.52;99780.84;7368316;19;20006;-58
2021/12/31 06:51:18;;;;;;;0.00;0.00;;;;;;;14.70;77.51;99786.13;7356387;19;20010;-59
2021/12/31 06:53:44;;;;;;;0.00;0.00;;;;;;;14.71;77.50;99783.44;7367425;19;20010;-58
2021/12/31 06:56:09;;;;;;;0.10;0.10;;;;;;;14.64;77.70;99766.28;7362944;19;20018;-58
2021/12/31 06:58:35;;;;;;;0.00;0.00;;;;;;;14.73;77.56;99804.34;7369014;19;20045;-58
2021/12/31 07:01:00;;;;;;;0.03;0.03;;;;;;;14.71;77.00;99795.72;7364269;19;20011;-58
2021/12/31 07:03:25;;;;;;;0.10;0.10;;;;;;;14.75;76.89;99795.47;7367660;19;20039;-58
2021/12/31 07:05:51;;;;;;;0.03;0.03;;;;;;;14.67;77.83;99781.88;7367767;19;20026;-58
2021/12/31 07:08:17;;;;;;;0.10;0.10;;;;;;;14.77;77.27;99798.84;7364726;19;20475;-58
2021/12/31 07:10:42;;;;;;;0.00;0.00;;;;;;;14.70;77.27;99784.34;7368117;19;20014;-58
2021/12/31 07:13:11;;;;;;;0.10;0.10;;;;;;;14.68;76.73;99788.84;7366231;19;20019;-60
2021/12/31 07:15:41;;;;;;;0.00;0.00;;;;;;;14.77;77.07;99809.38;7363841;19;20150;-59
2021/12/31 07:18:07;;;;;;;0.10;0.10;;;;;;;14.76;76.52;99833.09;7364506;19;20022;-58
2021/12/31 07:20:33;;;;;;;0.10;0.10;;;;;;;14.72;76.41;99832.41;7362696;19;20412;-59
2021/12/31 07:23:10;;;;;;;0.10;0.10;;;;;;;14.72;76.69;99842.09;7365924;19;20344;-59
2021/12/31 07:25:38;;;;;;;0.10;0.10;;;;;;;14.68;76.39;99857.16;7361247;19;20348;-58
2021/12/31 07:28:03;;;;;;;0.10;0.10;;;;;;;14.65;76.15;99846.81;7358140;19;20006;-58
2021/12/31 07:30:29;;;;;;;0.10;0.10;;;;;;;14.62;76.54;99852.22;7363401;19;20017;-58
2021/12/31 07:32:55;;;;;;;0.00;0.00;;;;;;;14.59;76.45;99855.00;7367036;19;20751;-58
2021/12/31 07:35:21;;;;;;;0.10;0.10;;;;;;;14.58;76.98;99874.34;7363268;19;20023;-58
2021/12/31 07:37:47;;;;;;;0.00;0.00;;;;;;;14.57;76.66;99869.16;7362905;19;20483;-58
2021/12/31 07:40:12;;;;;;;0.10;0.10;;;;;;;14.58;77.32;99871.72;7358580;19;20086;-59
2021/12/31 07:42:39;;;;;;;0.03;0.03;;;;;;;14.59;77.40;99878.66;7364396;19;20022;-57
2021/12/31 07:45:06;;;;;;;0.00;0.00;;;;;;;14.60;77.28;99885.63;7354567;19;20011;-58
2021/12/31 07:47:31;;;;;;;0.10;0.10;;;;;;;14.64;77.87;99902.06;7366319;19;20022;-58
2021/12/31 07:49:56;;;;;;;0.10;0.10;;;;;;;14.65;77.59;99894.13;7366284;19;20016;-59
2021/12/31 07:52:22;;;;;;;0.10;0.10;;;;;;;14.67;77.32;99896.66;7365808;19;20385;-58
2021/12/31 07:54:47;;;;;;;0.10;0.10;;;;;;;14.67;76.77;99892.25;7365820;19;20023;-58
2021/12/31 07:57:13;;;;;;;0.10;0.10;;;;;;;14.66;76.93;99898.44;7361047;19;20010;-58
2021/12/31 07:59:38;;;;;;;0.10;0.10;;;;;;;14.65;76.50;99894.13;7360864;19;20012;-58
2021/12/31 08:02:04;;;;;;;0.10;0.10;;;;;;;14.64;76.77;99888.94;7367910;19;20044;-58
2021/12/31 08:04:29;;;;;;;0.10;0.10;;;;;;;14.62;76.98;99883.75;7364615;19;20664;-57
2021/12/31 08:06:55;;;;;;;0.10;0.10;;;;;;;14.58;76.68;99908.50;7359932;19;20014;-58
2021/12/31 08:09:20;;;;;;;0.10;0.10;;;;;;;14.54;76.83;99906.94;7361583;19;20070;-58
2021/12/31 08:11:46;;;;;;;0.08;0.08;;;;;;;14.52;76.71;99914.06;7366399;19;20016;-58
2021/12/31 08:14:11;;;;;;;0.10;0.10;;;;;;;14.48;76.89;99913.38;7358536;19;20033;-58
2021/12/31 08:16:37;;;;;;;0.10;0.10;;;;;;;14.43;76.72;99919.75;7359028;19;20891;-58
2021/12/31 08:19:02;;;;;;;0.10;0.10;;;;;;;14.38;76.65;99937.53;7359312;19;20014;-59
2021/12/31 08:21:28;;;;;;;0.00;0.00;;;;;;;14.33;76.83;99955.28;7353583;19;20917;-58
2021/12/31 08:23:53;;;;;;;0.00;0.00;;;;;;;14.30;76.92;99942.34;7362317;19;20018;-58
2021/12/31 08:26:19;;;;;;;0.10;0.10;;;;;;;14.25;77.27;99964.41;7360331;19;20357;-58
2021/12/31 08:28:44;;;;;;;0.00;0.00;;;;;;;14.22;77.59;99964.56;7361698;19;20011;-59
2021/12/31 08:31:10;;;;;;;0.00;0.00;;;;;;;14.21;77.36;99983.88;7364787;19;20351;-59
2021/12/31 08:33:35;;;;;;;0.00;0.00;;;;;;;14.22;78.08;99996.06;7358078;19;20052;-58
2021/12/31 08:36:01;;;;;;;0.05;0.05;;;;;;;14.23;77.50;99984.63;7361646;19;20021;-58
2021/12/31 08:38:26;;;;;;;0.10;0.10;;;;;;;14.24;77.81;100002.13;7357930;19;20889;-58
2021/12/31 08:40:54;;;;;;;0.00;0.00;;;;;;;14.28;78.00;100015.94;7356966;19;20480;-55
2021/12/31 08:43:19;;;;;;;;;;;;;;;14.36;78.57;100028.69;7357787;19;20027;-59
2021/12/31 08:45:45;;;;;;;0.00;0.00;;;;;;;14.35;77.55;100037.50;7360314;19;19914;-58
2021/12/31 08:48:11;;;;;;;0.00;0.00;;;;;;;14.38;77.44;100034.72;7363382;19;20016;-58
2021/12/31 08:50:37;;;;;;;0.00;0.00;;;;;;;14.40;76.92;100044.25;7359545;19;20311;-58
2021/12/31 08:53:04;;;;;;;0.10;0.10;;;;;;;14.43;77.57;100043.22;7363605;19;20557;-58
2021/12/31 08:55:29;;;;;;;0.10;0.10;;;;;;;14.41;77.59;100055.59;7362781;19;20010;-59
2021/12/31 08:57:55;;;;;;;0.03;0.03;;;;;;;14.48;76.71;100054.38;7358614;19;20029;-58
2021/12/31 09:00:20;;;;;;;0.00;0.00;;;;;;;14.49;76.98;100050.81;7362520;19;20006;-58
2021/12/31 09:02:48;;;;;;;0.00;0.00;;;;;;;14.38;77.24;100045.22;7356496;19;20014;-58
2021/12/31 09:05:13;;;;;;;;;;;;;;;14.58;78.29;100075.81;7361706;19;20649;-58
2021/12/31 09:07:39;;;;;;;0.00;0.00;;;;;;;14.53;76.61;100073.41;7362445;19;19956;-58
2021/12/31 09:10:05;;;;;;;0.10;0.10;;;;;;;14.53;76.55;100073.41;7361041;19;20014;-58
2021/12/31 09:12:30;;;;;;;0.10;0.10;;;;;;;14.49;76.86;100069.22;7365656;19;20090;-58
2021/12/31 09:14:56;;;;;;;0.00;0.00;;;;;;;14.51;76.12;100070.84;7357666;19;20360;-58
2021/12/31 09:17:22;;;;;;;0.10;0.10;;;;;;;14.50;75.92;100076.19;7353838;19;20482;-58
2021/12/31 09:19:49;;;;;;;0.00;0.00;;;;;;;14.46;76.14;100087.75;7357808;19;20010;-59
2021/12/31 09:22:15;;;;;;;0.10;0.10;;;;;;;14.49;76.32;100084.97;7351919;19;20047;-58
2021/12/31 09:24:40;;;;;;;0.03;0.03;;;;;;;14.46;76.15;100077.22;7350202;19;20425;-58
2021/12/31 09:27:06;;;;;;;0.10;0.10;;;;;;;14.39;76.28;100081.91;7354666;19;20021;-58
2021/12/31 09:29:31;;;;;;;0.10;0.10;;;;;;;14.51;76.53;100096.28;7356291;19;20010;-58
2021/12/31 09:31:57;;;;;;;0.08;0.08;;;;;;;14.52;76.50;100096.19;7358756;19;20039;-58
2021/12/31 09:34:23;;;;;;;0.00;0.00;;;;;;;14.55;76.36;100108.34;7349967;19;20011;-58
2021/12/31 09:36:48;;;;;;;0.00;0.00;;;;;;;14.56;75.94;100103.94;7359097;19;20081;-57
2021/12/31 09:39:14;;;;;;;0.10;0.10;;;;;;;14.61;76.80;100123.81;7359269;19;20003;-58
2021/12/31 09:41:41;;;;;;;0.00;0.00;;;;;;;14.63;75.88;100127.22;7339060;19;20027;-58
2021/12/31 09:44:07;;;;;;;0.10;0.10;;;;;;;14.66;75.50;100127.06;7347781;19;20486;-58
2021/12/31 09:46:34;;;;;;;0.10;0.10;;;;;;;14.71;75.72;100134.72;7342389;19;20010;-58
2021/12/31 09:49:00;;;;;;;0.10;0.10;;;;;;;14.72;75.08;100131.19;7361046;19;20010;-58
2021/12/31 09:51:27;;;;;;;0.00;0.00;;;;;;;14.77;75.07;100139.69;7361815;19;20015;-58
2021/12/31 09:53:58;;;;;;;0.10;0.10;;;;;;;14.82;75.37;100142.09;7354101;19;20541;-58
2021/12/31 09:56:23;;;;;;;0.00;0.00;;;;;;;14.84;74.91;100141.06;7356700;19;20018;-58
2021/12/31 09:58:49;;;;;;;0.10;0.10;;;;;;;14.91;75.37;100139.00;7359497;19;20043;-58
2021/12/31 10:01:15;;;;;;;0.10;0.10;;;;;;;14.99;75.27;100139.47;7355577;19;20010;-58
2021/12/31 10:03:40;;;;;;;0.10;0.10;;;;;;;15.04;74.36;100137.47;7354191;19;20006;-58
2021/12/31 10:06:11;;;;;;;0.10;0.10;;;;;;;15.13;74.47;100147.53;7356725;19;20018;-58
2021/12/31 10:08:42;;;;;;;0.00;0.00;;;;;;;15.23;74.65;100158.44;7356823;19;20021;-58
2021/12/31 10:11:23;;;;;;;0.10;0.10;;;;;;;15.32;75.71;100153.56;7362565;19;20011;-57
2021/12/31 10:13:55;;;;;;;0.10;0.10;;;;;;;15.42;74.70;100166.25;7361052;19;20039;-58
2021/12/31 10:16:26;;;;;;;0.08;0.08;;;;;;;15.50;74.16;100174.56;7358354;19;20013;-58
2021/12/31 10:19:11;;;;;;;0.10;0.10;;;;;;;15.59;74.90;100192.53;7364241;19;20006;-59
2021/12/31 10:21:41;;;;;;;0.10;0.10;;;;;;;15.59;72.90;100197.78;7368183;19;20706;-58
2021/12/31 10:24:32;;;;;;;0.10;0.10;;;;;;;15.68;73.87;100197.34;7364037;19;20010;-57
2021/12/31 10:27:09;;;;;;;0.05;0.05;;;;;;;15.73;73.24;100191.84;7362697;19;20026;-58
2021/12/31 10:29:56;;;;;;;0.10;0.10;;;;;;;15.83;73.76;100204.47;7363684;19;20029;-58
2021/12/31 10:32:27;;;;;;;0.10;0.10;;;;;;;15.89;72.68;100199.81;7359998;19;20085;-58
2021/12/31 10:34:53;;;;;;;0.08;0.08;;;;;;;15.92;72.18;100197.03;7361677;19;20018;-59
2021/12/31 10:37:22;;;;;;;0.10;0.10;;;;;;;15.81;72.33;100171.22;7369105;19;20014;-58
2021/12/31 10:39:56;;;;;;;0.10;0.10;;;;;;;16.26;72.87;100225.88;7356287;19;20010;-58
2021/12/31 10:42:31;;;;;;;0.00;0.00;;;;;;;16.39;72.07;100235.78;7360394;19;20018;-58
2021/12/31 10:44:58;;;;;;;0.00;0.00;;;;;;;16.47;70.95;100244.94;7368916;19;20026;-58
2021/12/31 10:47:33;;;;;;;0.10;0.10;;;;;;;16.61;71.83;100252.09;7360303;19;20439;-58
2021/12/31 10:50:02;;;;;;;0.10;0.10;;;;;;;16.75;70.72;100254.88;7363672;19;20014;-58
2021/12/31 10:52:55;;;;;;;0.10;0.10;;;;;;;16.95;72.50;100258.19;7369685;19;20040;-59
2021/12/31 10:55:27;;;;;;;0.10;0.10;;;;;;;17.02;69.28;100262.16;7258213;19;2004485;-58
2021/12/31 10:57:57;;;;;;;0.00;0.00;;;;;;;17.18;68.71;100278.81;7370954;19;20015;-58
2021/12/31 11:00:24;;;;;;;0.10;0.10;;;;;;;17.21;67.91;100277.81;7365149;19;20018;-58
2021/12/31 11:02:50;;;;;;;0.10;0.10;;;;;;;17.24;68.53;100278.50;7360171;19;20006;-58
2021/12/31 11:05:18;;;;;;;0.00;0.00;;;;;;;17.23;68.75;100283.84;7368363;19;20425;-58
2021/12/31 11:07:45;;;;;;;0.00;0.00;;;;;;;17.19;68.60;100291.09;7358241;19;20027;-58
2021/12/31 11:10:11;;;;;;;0.10;0.10;;;;;;;17.15;68.73;100294.84;7360520;19;20014;-59
2021/12/31 11:12:37;;;;;;;0.00;0.00;;;;;;;17.16;68.28;100290.41;7369344;19;20007;-58
2021/12/31 11:15:06;;;;;;;0.10;0.10;;;;;;;17.18;68.56;100309.63;7359328;19;20042;-58
2021/12/31 11:17:32;;;;;;;0.10;0.10;;;;;;;17.09;67.93;100316.31;7371966;19;20019;-58
2021/12/31 11:19:59;;;;;;;0.03;0.03;;;;;;;17.04;68.17;100323.63;7360891;19;20002;-58
2021/12/31 11:22:27;;;;;;;0.10;0.10;;;;;;;17.01;67.90;100323.78;7357743;19;20014;-58
2021/12/31 11:24:52;;;;;;;0.08;0.08;;;;;;;16.84;69.40;100303.63;7367438;19;20577;-58
2021/12/31 11:27:35;;;;;;;0.10;0.10;;;;;;;17.05;71.23;100325.31;7367932;19;20015;-58
2021/12/31 11:30:02;;;;;;;0.10;0.10;;;;;;;17.10;70.75;100331.19;7368784;19;20110;-58
2021/12/31 11:33:06;;;;;;;0.10;0.10;;;;;;;17.17;70.60;100337.81;7355039;19;20030;-58
2021/12/31 11:35:43;;;;;;;0.10;0.10;;;;;;;17.08;67.88;100330.41;7259569;19;2004279;-58
2021/12/31 11:38:24;;;;;;;0.10;0.10;;;;;;;17.03;69.73;100348.28;7367415;19;20003;-59